Accueil
METAR-TAF:

METAR-TAF

Aéroports :

York Municipal Airport

York, Nebraska, États-Unis

latitude: 40-53-48N, longitude: 097-37-22W, altitude: 509 m

Observation

Le bulletin a été fait il y a 38 minutes, à 00:35 UTC
Vent 4 kt de est
Température 23°C
Humidité 73%
Pression 1020 hPa
Visibilité: 14.5 km
Ciel clair

METAR: KJYR 220035Z AUTO 10004KT 9SM CLR 23/18 A3011 RMK AO2

Heure: 20:13 (01:13 UTC)


TAF: absent

Observations et prévisions météorologiques de plus de 4000 aéroports (messages METAR et TAF).

Les stations disponibles sont représentées par des disques jaunes et rouges sur la carte.

Passer la souris dessus pour voir le nom de la station.

Cliquer dessus pour voir les observations et prévisions météorologiques.

Pour changer de carte: cliquez sur les boutons verts avec une croix noire pour zoomer, sur le bouton vert avec un tiret pour effectuer un zoom arrière, ou sur les flèches vertes pour les cartes adjacentes.


METAR-TAF: